sensor_id;sensor_type;location;lat;lon;timestamp;temperature;humidity
26707;DHT22;14319;49.422;10.934;2023-02-28T00:00:25;-1.00;67.70
26707;DHT22;14319;49.422;10.934;2023-02-28T00:02:25;-1.00;67.20
26707;DHT22;14319;49.422;10.934;2023-02-28T00:04:26;-1.00;67.70
26707;DHT22;14319;49.422;10.934;2023-02-28T00:06:27;-0.90;67.00
26707;DHT22;14319;49.422;10.934;2023-02-28T00:08:28;-0.90;67.10
26707;DHT22;14319;49.422;10.934;2023-02-28T00:10:30;-1.00;67.40
26707;DHT22;14319;49.422;10.934;2023-02-28T00:12:31;-0.90;67.20
26707;DHT22;14319;49.422;10.934;2023-02-28T00:14:31;-0.90;67.70
26707;DHT22;14319;49.422;10.934;2023-02-28T00:16:32;-1.00;66.70
26707;DHT22;14319;49.422;10.934;2023-02-28T00:18:33;-1.00;67.20
26707;DHT22;14319;49.422;10.934;2023-02-28T00:20:33;-0.90;67.60
26707;DHT22;14319;49.422;10.934;2023-02-28T00:22:34;-0.90;67.60
26707;DHT22;14319;49.422;10.934;2023-02-28T00:24:35;-0.90;67.60
26707;DHT22;14319;49.422;10.934;2023-02-28T00:26:35;-1.00;67.10
26707;DHT22;14319;49.422;10.934;2023-02-28T00:28:36;-1.00;67.50
26707;DHT22;14319;49.422;10.934;2023-02-28T00:30:38;-1.20;67.30
26707;DHT22;14319;49.422;10.934;2023-02-28T00:32:39;-1.20;67.70
26707;DHT22;14319;49.422;10.934;2023-02-28T00:34:40;-1.10;67.90
26707;DHT22;14319;49.422;10.934;2023-02-28T00:36:42;-1.10;67.60
26707;DHT22;14319;49.422;10.934;2023-02-28T00:38:45;-1.10;67.70
26707;DHT22;14319;49.422;10.934;2023-02-28T00:40:46;-1.20;68.70
26707;DHT22;14319;49.422;10.934;2023-02-28T00:42:46;-1.10;68.10
26707;DHT22;14319;49.422;10.934;2023-02-28T00:44:47;-1.20;67.60
26707;DHT22;14319;49.422;10.934;2023-02-28T00:46:48;-1.10;68.10
26707;DHT22;14319;49.422;10.934;2023-02-28T00:48:48;-1.20;67.70
26707;DHT22;14319;49.422;10.934;2023-02-28T00:50:49;-1.10;68.10
26707;DHT22;14319;49.422;10.934;2023-02-28T00:52:50;-1.30;67.80
26707;DHT22;14319;49.422;10.934;2023-02-28T00:54:50;-1.20;68.00
26707;DHT22;14319;49.422;10.934;2023-02-28T00:56:51;-1.20;67.80
26707;DHT22;14319;49.422;10.934;2023-02-28T00:58:52;-1.20;67.70
26707;DHT22;14319;49.422;10.934;2023-02-28T01:00:53;-1.20;67.90
26707;DHT22;14319;49.422;10.934;2023-02-28T01:02:54;-1.10;68.00
26707;DHT22;14319;49.422;10.934;2023-02-28T01:04:56;-1.10;68.00
26707;DHT22;14319;49.422;10.934;2023-02-28T01:06:57;-1.20;68.20
26707;DHT22;14319;49.422;10.934;2023-02-28T01:08:58;-1.20;67.90
26707;DHT22;14319;49.422;10.934;2023-02-28T01:11:07;-1.10;68.30
26707;DHT22;14319;49.422;10.934;2023-02-28T01:13:08;-1.10;68.10
26707;DHT22;14319;49.422;10.934;2023-02-28T01:15:11;-1.10;68.00
26707;DHT22;14319;49.422;10.934;2023-02-28T01:17:12;-1.10;68.10
26707;DHT22;14319;49.422;10.934;2023-02-28T01:19:12;-1.20;68.40
26707;DHT22;14319;49.422;10.934;2023-02-28T01:21:16;-1.20;68.20
26707;DHT22;14319;49.422;10.934;2023-02-28T01:23:19;-1.20;68.40
26707;DHT22;14319;49.422;10.934;2023-02-28T01:25:21;-1.20;69.20
26707;DHT22;14319;49.422;10.934;2023-02-28T01:27:25;-1.10;68.50
26707;DHT22;14319;49.422;10.934;2023-02-28T01:29:26;-1.10;68.70
26707;DHT22;14319;49.422;10.934;2023-02-28T01:31:27;-1.30;68.10
26707;DHT22;14319;49.422;10.934;2023-02-28T01:33:28;-1.20;68.70
26707;DHT22;14319;49.422;10.934;2023-02-28T01:35:31;-1.10;68.10
26707;DHT22;14319;49.422;10.934;2023-02-28T01:37:32;-1.10;67.90
26707;DHT22;14319;49.422;10.934;2023-02-28T01:39:33;-1.10;68.40
26707;DHT22;14319;49.422;10.934;2023-02-28T01:41:34;-1.10;68.60
26707;DHT22;14319;49.422;10.934;2023-02-28T01:45:46;-1.20;68.60
26707;DHT22;14319;49.422;10.934;2023-02-28T01:47:49;-1.10;68.60
26707;DHT22;14319;49.422;10.934;2023-02-28T01:49:52;-1.10;68.20
26707;DHT22;14319;49.422;10.934;2023-02-28T01:51:55;-1.20;68.70
26707;DHT22;14319;49.422;10.934;2023-02-28T01:54:01;-1.10;68.30
26707;DHT22;14319;49.422;10.934;2023-02-28T01:56:06;-1.10;68.50
26707;DHT22;14319;49.422;10.934;2023-02-28T01:58:09;-1.10;68.30
26707;DHT22;14319;49.422;10.934;2023-02-28T02:00:14;-1.20;68.70
26707;DHT22;14319;49.422;10.934;2023-02-28T02:02:22;-1.10;69.50
26707;DHT22;14319;49.422;10.934;2023-02-28T02:04:26;-1.10;68.70
26707;DHT22;14319;49.422;10.934;2023-02-28T02:06:34;-1.10;68.70
26707;DHT22;14319;49.422;10.934;2023-02-28T02:08:39;-1.10;68.90
26707;DHT22;14319;49.422;10.934;2023-02-28T02:10:46;-1.10;68.90
26707;DHT22;14319;49.422;10.934;2023-02-28T02:15:00;-1.10;68.90
26707;DHT22;14319;49.422;10.934;2023-02-28T02:17:52;-1.00;68.50
26707;DHT22;14319;49.422;10.934;2023-02-28T02:22:20;-1.10;69.00
26707;DHT22;14319;49.422;10.934;2023-02-28T02:24:48;-1.10;68.80
26707;DHT22;14319;49.422;10.934;2023-02-28T02:27:17;-1.10;69.00
26707;DHT22;14319;49.422;10.934;2023-02-28T02:30:08;-1.10;69.00
26707;DHT22;14319;49.422;10.934;2023-02-28T02:32:37;-1.10;68.60
26707;DHT22;14319;49.422;10.934;2023-02-28T02:36:58;-1.30;69.40
26707;DHT22;14319;49.422;10.934;2023-02-28T02:39:31;-1.40;69.40
26707;DHT22;14319;49.422;10.934;2023-02-28T02:41:50;-1.40;70.10
26707;DHT22;14319;49.422;10.934;2023-02-28T02:46:06;-1.30;69.80
26707;DHT22;14319;49.422;10.934;2023-02-28T02:48:12;-1.40;69.60
26707;DHT22;14319;49.422;10.934;2023-02-28T02:50:19;-1.40;69.50
26707;DHT22;14319;49.422;10.934;2023-02-28T02:52:25;-1.30;70.00
26707;DHT22;14319;49.422;10.934;2023-02-28T02:54:30;-1.30;70.20
26707;DHT22;14319;49.422;10.934;2023-02-28T02:56:32;-1.30;69.80
26707;DHT22;14319;49.422;10.934;2023-02-28T02:58:40;-1.20;69.60
26707;DHT22;14319;49.422;10.934;2023-02-28T03:00:57;-1.20;69.50
26707;DHT22;14319;49.422;10.934;2023-02-28T03:03:00;-1.30;69.70
26707;DHT22;14319;49.422;10.934;2023-02-28T03:05:06;-1.30;69.60
26707;DHT22;14319;49.422;10.934;2023-02-28T03:07:08;-1.30;69.70
26707;DHT22;14319;49.422;10.934;2023-02-28T03:09:09;-1.30;69.80
26707;DHT22;14319;49.422;10.934;2023-02-28T03:11:13;-1.30;69.80
26707;DHT22;14319;49.422;10.934;2023-02-28T03:18:08;-1.30;70.00
26707;DHT22;14319;49.422;10.934;2023-02-28T03:27:48;-1.30;70.00
26707;DHT22;14319;49.422;10.934;2023-02-28T03:32:08;-1.30;70.00
26707;DHT22;14319;49.422;10.934;2023-02-28T03:34:24;-1.30;70.30
26707;DHT22;14319;49.422;10.934;2023-02-28T03:36:29;-1.30;70.10
26707;DHT22;14319;49.422;10.934;2023-02-28T03:38:41;-1.30;69.80
26707;DHT22;14319;49.422;10.934;2023-02-28T03:40:51;-1.30;70.20
26707;DHT22;14319;49.422;10.934;2023-02-28T03:43:00;-1.30;70.10
26707;DHT22;14319;49.422;10.934;2023-02-28T03:45:10;-1.30;70.00
26707;DHT22;14319;49.422;10.934;2023-02-28T03:47:21;-1.30;70.50
26707;DHT22;14319;49.422;10.934;2023-02-28T03:49:27;-1.30;70.10
26707;DHT22;14319;49.422;10.934;2023-02-28T03:51:31;-1.40;70.20
26707;DHT22;14319;49.422;10.934;2023-02-28T03:53:39;-1.40;70.00
26707;DHT22;14319;49.422;10.934;2023-02-28T03:55:46;-1.40;70.50
26707;DHT22;14319;49.422;10.934;2023-02-28T03:57:58;-1.30;70.70
26707;DHT22;14319;49.422;10.934;2023-02-28T04:00:14;-1.30;70.30
26707;DHT22;14319;49.422;10.934;2023-02-28T04:02:16;-1.40;70.40
26707;DHT22;14319;49.422;10.934;2023-02-28T04:04:18;-1.30;70.50
26707;DHT22;14319;49.422;10.934;2023-02-28T04:06:21;-1.40;70.40
26707;DHT22;14319;49.422;10.934;2023-02-28T04:08:22;-1.40;70.60
26707;DHT22;14319;49.422;10.934;2023-02-28T04:10:23;-1.40;70.30
26707;DHT22;14319;49.422;10.934;2023-02-28T04:12:23;-1.30;70.50
26707;DHT22;14319;49.422;10.934;2023-02-28T04:14:25;-1.30;70.60
26707;DHT22;14319;49.422;10.934;2023-02-28T04:16:25;-1.30;70.20
26707;DHT22;14319;49.422;10.934;2023-02-28T04:18:26;-1.20;70.00
26707;DHT22;14319;49.422;10.934;2023-02-28T04:20:27;-1.30;70.70
26707;DHT22;14319;49.422;10.934;2023-02-28T04:22:27;-1.30;70.80
26707;DHT22;14319;49.422;10.934;2023-02-28T04:24:28;-1.30;70.60
26707;DHT22;14319;49.422;10.934;2023-02-28T04:26:36;-1.30;70.50
26707;DHT22;14319;49.422;10.934;2023-02-28T04:28:38;-1.30;70.00
26707;DHT22;14319;49.422;10.934;2023-02-28T04:30:38;-1.30;70.50
26707;DHT22;14319;49.422;10.934;2023-02-28T04:32:39;-1.30;70.80
26707;DHT22;14319;49.422;10.934;2023-02-28T04:34:40;-1.40;70.30
26707;DHT22;14319;49.422;10.934;2023-02-28T04:36:40;-1.40;70.50
26707;DHT22;14319;49.422;10.934;2023-02-28T04:38:41;-1.30;70.70
26707;DHT22;14319;49.422;10.934;2023-02-28T04:40:41;-1.30;70.60
26707;DHT22;14319;49.422;10.934;2023-02-28T04:42:42;-1.30;70.40
26707;DHT22;14319;49.422;10.934;2023-02-28T04:44:42;-1.30;70.40
26707;DHT22;14319;49.422;10.934;2023-02-28T04:46:43;-1.30;70.50
26707;DHT22;14319;49.422;10.934;2023-02-28T04:48:44;-1.40;70.30
26707;DHT22;14319;49.422;10.934;2023-02-28T04:50:45;-1.40;70.80
26707;DHT22;14319;49.422;10.934;2023-02-28T04:52:45;-1.40;70.50
26707;DHT22;14319;49.422;10.934;2023-02-28T04:54:46;-1.40;70.50
26707;DHT22;14319;49.422;10.934;2023-02-28T04:56:47;-1.40;70.40
26707;DHT22;14319;49.422;10.934;2023-02-28T04:58:50;-1.40;70.50
26707;DHT22;14319;49.422;10.934;2023-02-28T05:00:53;-1.30;70.70
26707;DHT22;14319;49.422;10.934;2023-02-28T05:02:53;-1.30;71.00
26707;DHT22;14319;49.422;10.934;2023-02-28T05:04:54;-1.30;70.70
26707;DHT22;14319;49.422;10.934;2023-02-28T05:06:54;-1.30;70.60
26707;DHT22;14319;49.422;10.934;2023-02-28T05:08:55;-1.20;70.70
26707;DHT22;14319;49.422;10.934;2023-02-28T05:10:56;-1.20;70.60
26707;DHT22;14319;49.422;10.934;2023-02-28T05:12:57;-1.20;70.80
26707;DHT22;14319;49.422;10.934;2023-02-28T05:14:58;-1.20;70.10
26707;DHT22;14319;49.422;10.934;2023-02-28T05:16:58;-1.20;70.10
26707;DHT22;14319;49.422;10.934;2023-02-28T05:18:59;-1.20;70.40
26707;DHT22;14319;49.422;10.934;2023-02-28T05:21:00;-1.20;70.50
26707;DHT22;14319;49.422;10.934;2023-02-28T05:23:02;-1.20;70.70
26707;DHT22;14319;49.422;10.934;2023-02-28T05:25:04;-1.20;70.40
26707;DHT22;14319;49.422;10.934;2023-02-28T05:27:05;-1.10;70.30
26707;DHT22;14319;49.422;10.934;2023-02-28T05:29:06;-1.10;70.50
26707;DHT22;14319;49.422;10.934;2023-02-28T05:31:10;-1.10;70.10
26707;DHT22;14319;49.422;10.934;2023-02-28T05:33:11;-1.20;70.40
26707;DHT22;14319;49.422;10.934;2023-02-28T05:35:12;-1.10;70.40
26707;DHT22;14319;49.422;10.934;2023-02-28T05:37:14;-1.30;70.80
26707;DHT22;14319;49.422;10.934;2023-02-28T05:39:15;-1.30;70.80
26707;DHT22;14319;49.422;10.934;2023-02-28T05:41:17;-1.20;70.50
26707;DHT22;14319;49.422;10.934;2023-02-28T05:43:19;-1.20;71.00
26707;DHT22;14319;49.422;10.934;2023-02-28T05:45:20;-1.10;70.40
26707;DHT22;14319;49.422;10.934;2023-02-28T05:47:20;-1.10;70.50
26707;DHT22;14319;49.422;10.934;2023-02-28T05:49:21;-1.10;70.50
26707;DHT22;14319;49.422;10.934;2023-02-28T05:51:21;-1.10;70.00
26707;DHT22;14319;49.422;10.934;2023-02-28T05:53:22;-1.10;70.10
26707;DHT22;14319;49.422;10.934;2023-02-28T05:55:23;-1.20;69.90
26707;DHT22;14319;49.422;10.934;2023-02-28T05:57:25;-1.20;70.40
26707;DHT22;14319;49.422;10.934;2023-02-28T05:59:25;-1.20;70.40
26707;DHT22;14319;49.422;10.934;2023-02-28T06:01:41;-1.30;70.60
26707;DHT22;14319;49.422;10.934;2023-02-28T06:03:41;-1.20;70.70
26707;DHT22;14319;49.422;10.934;2023-02-28T06:05:42;-1.20;70.00
26707;DHT22;14319;49.422;10.934;2023-02-28T06:07:43;-1.20;70.20
26707;DHT22;14319;49.422;10.934;2023-02-28T06:09:44;-1.20;70.50
26707;DHT22;14319;49.422;10.934;2023-02-28T06:11:44;-1.20;70.20
26707;DHT22;14319;49.422;10.934;2023-02-28T06:13:45;-1.10;70.40
26707;DHT22;14319;49.422;10.934;2023-02-28T06:15:46;-1.10;70.30
26707;DHT22;14319;49.422;10.934;2023-02-28T06:17:46;-1.10;70.10
26707;DHT22;14319;49.422;10.934;2023-02-28T06:19:47;-1.10;70.10
26707;DHT22;14319;49.422;10.934;2023-02-28T06:21:52;-1.10;70.20
26707;DHT22;14319;49.422;10.934;2023-02-28T06:23:53;-1.20;70.30
26707;DHT22;14319;49.422;10.934;2023-02-28T06:25:54;-1.30;70.70
26707;DHT22;14319;49.422;10.934;2023-02-28T06:27:58;-1.20;70.50
26707;DHT22;14319;49.422;10.934;2023-02-28T06:29:59;-1.20;70.60
26707;DHT22;14319;49.422;10.934;2023-02-28T06:31:59;-1.20;70.20
26707;DHT22;14319;49.422;10.934;2023-02-28T06:34:00;-1.10;70.40
26707;DHT22;14319;49.422;10.934;2023-02-28T06:36:05;-1.10;70.30
26707;DHT22;14319;49.422;10.934;2023-02-28T06:38:06;-1.20;70.20
26707;DHT22;14319;49.422;10.934;2023-02-28T06:40:07;-1.20;70.50
26707;DHT22;14319;49.422;10.934;2023-02-28T06:42:08;-1.00;69.80
26707;DHT22;14319;49.422;10.934;2023-02-28T06:44:13;-1.10;70.10
26707;DHT22;14319;49.422;10.934;2023-02-28T06:46:14;-1.10;70.00
26707;DHT22;14319;49.422;10.934;2023-02-28T06:48:15;-1.10;69.70
26707;DHT22;14319;49.422;10.934;2023-02-28T06:50:16;-1.10;69.80
26707;DHT22;14319;49.422;10.934;2023-02-28T06:52:19;-1.10;70.00
26707;DHT22;14319;49.422;10.934;2023-02-28T06:54:20;-1.00;69.60
26707;DHT22;14319;49.422;10.934;2023-02-28T06:56:21;-1.00;69.70
26707;DHT22;14319;49.422;10.934;2023-02-28T06:58:22;-1.10;70.10
26707;DHT22;14319;49.422;10.934;2023-02-28T07:00:23;-1.10;70.40
26707;DHT22;14319;49.422;10.934;2023-02-28T07:02:23;-1.10;70.30
26707;DHT22;14319;49.422;10.934;2023-02-28T07:04:24;-1.10;69.80
26707;DHT22;14319;49.422;10.934;2023-02-28T07:06:24;-1.00;70.30
26707;DHT22;14319;49.422;10.934;2023-02-28T07:08:25;-0.90;69.90
26707;DHT22;14319;49.422;10.934;2023-02-28T07:10:27;-0.90;69.50
26707;DHT22;14319;49.422;10.934;2023-02-28T07:12:27;-0.90;69.60
26707;DHT22;14319;49.422;10.934;2023-02-28T07:14:28;-0.90;69.60
26707;DHT22;14319;49.422;10.934;2023-02-28T07:16:28;-0.90;69.00
26707;DHT22;14319;49.422;10.934;2023-02-28T07:18:29;-0.80;68.40
26707;DHT22;14319;49.422;10.934;2023-02-28T07:20:30;-0.80;68.60
26707;DHT22;14319;49.422;10.934;2023-02-28T07:22:31;-0.90;69.20
26707;DHT22;14319;49.422;10.934;2023-02-28T07:24:31;-0.90;70.10
26707;DHT22;14319;49.422;10.934;2023-02-28T07:26:32;-0.90;68.90
26707;DHT22;14319;49.422;10.934;2023-02-28T07:28:34;-0.70;69.00
26707;DHT22;14319;49.422;10.934;2023-02-28T07:30:35;-0.70;68.70
26707;DHT22;14319;49.422;10.934;2023-02-28T07:32:35;-0.80;68.70
26707;DHT22;14319;49.422;10.934;2023-02-28T07:34:38;-0.70;69.50
26707;DHT22;14319;49.422;10.934;2023-02-28T07:36:38;-0.60;68.70
26707;DHT22;14319;49.422;10.934;2023-02-28T07:38:39;-0.50;68.20
26707;DHT22;14319;49.422;10.934;2023-02-28T07:40:39;-0.50;68.60
26707;DHT22;14319;49.422;10.934;2023-02-28T07:42:41;-0.50;68.60
26707;DHT22;14319;49.422;10.934;2023-02-28T07:44:42;-0.40;67.30
26707;DHT22;14319;49.422;10.934;2023-02-28T07:46:43;-0.40;67.80
26707;DHT22;14319;49.422;10.934;2023-02-28T07:48:44;-0.50;67.60
26707;DHT22;14319;49.422;10.934;2023-02-28T07:50:45;-0.40;67.60
26707;DHT22;14319;49.422;10.934;2023-02-28T07:52:55;-0.30;67.60
26707;DHT22;14319;49.422;10.934;2023-02-28T07:54:56;-0.30;68.00
26707;DHT22;14319;49.422;10.934;2023-02-28T07:56:57;-0.10;66.80
26707;DHT22;14319;49.422;10.934;2023-02-28T07:58:57;-0.10;66.90
26707;DHT22;14319;49.422;10.934;2023-02-28T08:01:08;-0.10;66.60
26707;DHT22;14319;49.422;10.934;2023-02-28T08:03:11;-0.10;66.60
26707;DHT22;14319;49.422;10.934;2023-02-28T08:05:12;0.00;66.10
26707;DHT22;14319;49.422;10.934;2023-02-28T08:07:13;0.00;65.60
26707;DHT22;14319;49.422;10.934;2023-02-28T08:09:14;0.00;65.30
26707;DHT22;14319;49.422;10.934;2023-02-28T08:11:16;0.00;65.60
26707;DHT22;14319;49.422;10.934;2023-02-28T08:13:16;0.00;65.90
26707;DHT22;14319;49.422;10.934;2023-02-28T08:15:17;0.00;65.60
26707;DHT22;14319;49.422;10.934;2023-02-28T08:17:17;0.00;66.60
26707;DHT22;14319;49.422;10.934;2023-02-28T08:19:18;0.00;66.20
26707;DHT22;14319;49.422;10.934;2023-02-28T08:21:19;0.00;66.30
26707;DHT22;14319;49.422;10.934;2023-02-28T08:23:20;0.10;65.80
26707;DHT22;14319;49.422;10.934;2023-02-28T08:25:21;0.10;66.70
26707;DHT22;14319;49.422;10.934;2023-02-28T08:27:21;0.10;66.10
26707;DHT22;14319;49.422;10.934;2023-02-28T08:29:22;0.20;66.20
26707;DHT22;14319;49.422;10.934;2023-02-28T08:31:23;0.20;65.80
26707;DHT22;14319;49.422;10.934;2023-02-28T08:33:24;0.30;66.10
26707;DHT22;14319;49.422;10.934;2023-02-28T08:35:25;0.30;65.60
26707;DHT22;14319;49.422;10.934;2023-02-28T08:37:26;0.20;65.40
26707;DHT22;14319;49.422;10.934;2023-02-28T08:41:37;0.20;64.70
26707;DHT22;14319;49.422;10.934;2023-02-28T08:43:39;0.20;64.70
26707;DHT22;14319;49.422;10.934;2023-02-28T08:45:39;0.30;63.40
26707;DHT22;14319;49.422;10.934;2023-02-28T08:47:41;0.20;64.00
26707;DHT22;14319;49.422;10.934;2023-02-28T08:49:41;0.20;63.90
26707;DHT22;14319;49.422;10.934;2023-02-28T08:51:42;0.30;64.30
26707;DHT22;14319;49.422;10.934;2023-02-28T08:53:42;0.40;64.30
26707;DHT22;14319;49.422;10.934;2023-02-28T08:55:43;0.40;64.10
26707;DHT22;14319;49.422;10.934;2023-02-28T08:57:43;0.40;63.40
26707;DHT22;14319;49.422;10.934;2023-02-28T08:59:44;0.50;63.90
26707;DHT22;14319;49.422;10.934;2023-02-28T09:01:45;0.50;63.40
26707;DHT22;14319;49.422;10.934;2023-02-28T09:03:47;0.60;63.30
26707;DHT22;14319;49.422;10.934;2023-02-28T09:05:56;0.70;63.80
26707;DHT22;14319;49.422;10.934;2023-02-28T09:07:56;0.80;63.20
26707;DHT22;14319;49.422;10.934;2023-02-28T09:09:57;0.80;63.60
26707;DHT22;14319;49.422;10.934;2023-02-28T09:11:58;0.90;62.90
26707;DHT22;14319;49.422;10.934;2023-02-28T09:13:59;0.90;62.20
26707;DHT22;14319;49.422;10.934;2023-02-28T09:16:03;1.00;62.60
26707;DHT22;14319;49.422;10.934;2023-02-28T09:18:04;0.90;60.70
26707;DHT22;14319;49.422;10.934;2023-02-28T09:20:05;0.80;60.90
26707;DHT22;14319;49.422;10.934;2023-02-28T09:22:06;0.80;61.80
26707;DHT22;14319;49.422;10.934;2023-02-28T09:24:07;0.80;61.40
26707;DHT22;14319;49.422;10.934;2023-02-28T09:26:11;0.90;61.00
26707;DHT22;14319;49.422;10.934;2023-02-28T09:28:13;0.90;62.30
26707;DHT22;14319;49.422;10.934;2023-02-28T09:30:17;1.00;60.80
26707;DHT22;14319;49.422;10.934;2023-02-28T09:32:18;1.10;61.00
26707;DHT22;14319;49.422;10.934;2023-02-28T09:34:18;1.20;61.80
26707;DHT22;14319;49.422;10.934;2023-02-28T09:36:21;1.20;60.10
26707;DHT22;14319;49.422;10.934;2023-02-28T09:38:21;1.20;61.40
26707;DHT22;14319;49.422;10.934;2023-02-28T09:40:24;1.30;59.80
26707;DHT22;14319;49.422;10.934;2023-02-28T09:42:31;1.20;60.00
26707;DHT22;14319;49.422;10.934;2023-02-28T09:44:38;1.20;59.30
26707;DHT22;14319;49.422;10.934;2023-02-28T09:46:47;1.20;60.50
26707;DHT22;14319;49.422;10.934;2023-02-28T09:48:49;1.30;60.30
26707;DHT22;14319;49.422;10.934;2023-02-28T09:51:00;1.40;60.20
26707;DHT22;14319;49.422;10.934;2023-02-28T09:53:10;1.60;59.60
26707;DHT22;14319;49.422;10.934;2023-02-28T09:57:37;1.50;59.40
26707;DHT22;14319;49.422;10.934;2023-02-28T09:59:58;1.60;59.40
26707;DHT22;14319;49.422;10.934;2023-02-28T10:02:19;1.60;59.60
26707;DHT22;14319;49.422;10.934;2023-02-28T10:04:36;1.70;59.90
26707;DHT22;14319;49.422;10.934;2023-02-28T10:06:46;1.80;60.20
26707;DHT22;14319;49.422;10.934;2023-02-28T10:09:02;1.70;58.10
26707;DHT22;14319;49.422;10.934;2023-02-28T10:11:07;1.80;58.30
26707;DHT22;14319;49.422;10.934;2023-02-28T10:13:32;1.70;58.60
26707;DHT22;14319;49.422;10.934;2023-02-28T10:15:34;1.70;58.60
26707;DHT22;14319;49.422;10.934;2023-02-28T10:17:39;1.70;58.70
26707;DHT22;14319;49.422;10.934;2023-02-28T10:21:49;1.70;58.50
26707;DHT22;14319;49.422;10.934;2023-02-28T10:23:58;1.60;57.70
26707;DHT22;14319;49.422;10.934;2023-02-28T10:28:12;1.70;57.20
26707;DHT22;14319;49.422;10.934;2023-02-28T10:30:13;1.80;58.00
26707;DHT22;14319;49.422;10.934;2023-02-28T10:32:20;1.90;57.40
26707;DHT22;14319;49.422;10.934;2023-02-28T10:34:21;2.00;56.80
26707;DHT22;14319;49.422;10.934;2023-02-28T10:36:22;2.10;56.90
26707;DHT22;14319;49.422;10.934;2023-02-28T10:38:29;2.10;57.30
26707;DHT22;14319;49.422;10.934;2023-02-28T10:40:35;2.10;56.20
26707;DHT22;14319;49.422;10.934;2023-02-28T10:42:36;2.00;55.40
26707;DHT22;14319;49.422;10.934;2023-02-28T10:44:39;2.10;55.90
26707;DHT22;14319;49.422;10.934;2023-02-28T10:46:41;2.10;55.60
26707;DHT22;14319;49.422;10.934;2023-02-28T10:48:50;2.10;55.70
26707;DHT22;14319;49.422;10.934;2023-02-28T10:50:58;2.10;55.10
26707;DHT22;14319;49.422;10.934;2023-02-28T10:55:25;2.20;56.10
26707;DHT22;14319;49.422;10.934;2023-02-28T10:57:26;2.30;55.10
26707;DHT22;14319;49.422;10.934;2023-02-28T10:59:31;2.30;55.40
26707;DHT22;14319;49.422;10.934;2023-02-28T11:03:34;2.50;54.70
26707;DHT22;14319;49.422;10.934;2023-02-28T11:05:35;2.50;55.50
26707;DHT22;14319;49.422;10.934;2023-02-28T11:07:37;2.50;54.40
26707;DHT22;14319;49.422;10.934;2023-02-28T11:09:40;2.50;54.90
26707;DHT22;14319;49.422;10.934;2023-02-28T11:11:44;2.60;54.30
26707;DHT22;14319;49.422;10.934;2023-02-28T11:13:46;2.70;54.60
26707;DHT22;14319;49.422;10.934;2023-02-28T11:15:55;2.70;54.20
26707;DHT22;14319;49.422;10.934;2023-02-28T11:17:58;2.70;53.70
26707;DHT22;14319;49.422;10.934;2023-02-28T11:20:05;2.80;53.70
26707;DHT22;14319;49.422;10.934;2023-02-28T11:22:07;2.80;53.30
26707;DHT22;14319;49.422;10.934;2023-02-28T11:24:31;2.80;54.20
26707;DHT22;14319;49.422;10.934;2023-02-28T11:26:43;2.70;52.40
26707;DHT22;14319;49.422;10.934;2023-02-28T11:28:47;2.80;53.00
26707;DHT22;14319;49.422;10.934;2023-02-28T11:31:20;2.70;53.00
26707;DHT22;14319;49.422;10.934;2023-02-28T11:33:26;2.70;53.10
26707;DHT22;14319;49.422;10.934;2023-02-28T11:35:33;2.80;53.70
26707;DHT22;14319;49.422;10.934;2023-02-28T11:37:38;2.90;52.60
26707;DHT22;14319;49.422;10.934;2023-02-28T11:39:39;3.00;53.20
26707;DHT22;14319;49.422;10.934;2023-02-28T11:41:58;3.00;52.20
26707;DHT22;14319;49.422;10.934;2023-02-28T11:48:45;3.10;52.90
26707;DHT22;14319;49.422;10.934;2023-02-28T11:50:52;3.10;52.90
26707;DHT22;14319;49.422;10.934;2023-02-28T11:57:31;3.20;53.10
26707;DHT22;14319;49.422;10.934;2023-02-28T12:05:05;3.40;52.30
26707;DHT22;14319;49.422;10.934;2023-02-28T12:07:15;3.30;51.00
26707;DHT22;14319;49.422;10.934;2023-02-28T12:14:20;3.40;51.00
26707;DHT22;14319;49.422;10.934;2023-02-28T12:16:47;3.40;51.90
26707;DHT22;14319;49.422;10.934;2023-02-28T12:21:31;3.40;51.40
26707;DHT22;14319;49.422;10.934;2023-02-28T12:26:34;3.40;52.40
26707;DHT22;14319;49.422;10.934;2023-02-28T12:28:42;3.50;52.60
26707;DHT22;14319;49.422;10.934;2023-02-28T12:31:08;3.50;51.00
26707;DHT22;14319;49.422;10.934;2023-02-28T12:33:12;3.50;51.70
26707;DHT22;14319;49.422;10.934;2023-02-28T12:35:16;3.60;51.20
26707;DHT22;14319;49.422;10.934;2023-02-28T12:37:25;3.60;51.40
26707;DHT22;14319;49.422;10.934;2023-02-28T12:39:37;3.60;51.70
26707;DHT22;14319;49.422;10.934;2023-02-28T12:41:46;3.60;50.70
26707;DHT22;14319;49.422;10.934;2023-02-28T12:43:58;3.60;51.30
26707;DHT22;14319;49.422;10.934;2023-02-28T12:46:15;3.60;51.70
26707;DHT22;14319;49.422;10.934;2023-02-28T12:48:29;3.70;52.00
26707;DHT22;14319;49.422;10.934;2023-02-28T12:50:32;3.80;51.30
26707;DHT22;14319;49.422;10.934;2023-02-28T12:52:58;3.80;51.70
26707;DHT22;14319;49.422;10.934;2023-02-28T13:00:08;3.80;51.90
26707;DHT22;14319;49.422;10.934;2023-02-28T13:07:20;4.00;51.40
26707;DHT22;14319;49.422;10.934;2023-02-28T13:09:24;4.10;50.30
26707;DHT22;14319;49.422;10.934;2023-02-28T13:11:34;4.20;50.80
26707;DHT22;14319;49.422;10.934;2023-02-28T13:13:44;4.10;50.90
26707;DHT22;14319;49.422;10.934;2023-02-28T13:16:07;4.10;50.80
26707;DHT22;14319;49.422;10.934;2023-02-28T13:18:28;4.20;49.20
26707;DHT22;14319;49.422;10.934;2023-02-28T13:20:34;4.20;51.00
26707;DHT22;14319;49.422;10.934;2023-02-28T13:22:42;4.20;51.30
26707;DHT22;14319;49.422;10.934;2023-02-28T13:24:48;4.10;50.70
26707;DHT22;14319;49.422;10.934;2023-02-28T13:29:04;4.10;50.40
26707;DHT22;14319;49.422;10.934;2023-02-28T13:31:21;4.10;50.10
26707;DHT22;14319;49.422;10.934;2023-02-28T13:33:34;4.10;50.60
26707;DHT22;14319;49.422;10.934;2023-02-28T13:35:37;4.10;50.80
26707;DHT22;14319;49.422;10.934;2023-02-28T13:37:46;4.20;49.80
26707;DHT22;14319;49.422;10.934;2023-02-28T13:44:23;4.10;50.70
26707;DHT22;14319;49.422;10.934;2023-02-28T13:46:27;4.10;50.80
26707;DHT22;14319;49.422;10.934;2023-02-28T13:48:29;4.10;51.70
26707;DHT22;14319;49.422;10.934;2023-02-28T13:50:36;4.30;50.60
26707;DHT22;14319;49.422;10.934;2023-02-28T13:52:45;4.20;50.20
26707;DHT22;14319;49.422;10.934;2023-02-28T13:55:23;4.20;50.10
26707;DHT22;14319;49.422;10.934;2023-02-28T13:57:57;4.20;50.30
26707;DHT22;14319;49.422;10.934;2023-02-28T14:04:46;4.20;51.00
26707;DHT22;14319;49.422;10.934;2023-02-28T14:06:50;4.30;51.20
26707;DHT22;14319;49.422;10.934;2023-02-28T14:09:16;4.10;51.40
26707;DHT22;14319;49.422;10.934;2023-02-28T14:11:30;4.20;51.70
26707;DHT22;14319;49.422;10.934;2023-02-28T14:13:43;4.20;51.40
26707;DHT22;14319;49.422;10.934;2023-02-28T14:15:48;4.20;51.30
26707;DHT22;14319;49.422;10.934;2023-02-28T14:17:54;4.30;52.30
26707;DHT22;14319;49.422;10.934;2023-02-28T14:19:57;4.30;51.10
26707;DHT22;14319;49.422;10.934;2023-02-28T14:25:13;4.30;51.00
26707;DHT22;14319;49.422;10.934;2023-02-28T14:34:31;4.30;50.60
26707;DHT22;14319;49.422;10.934;2023-02-28T14:36:36;4.20;51.30